Time;durP1;ratioP1;P1;durP2;ratioP2;P2;SDS_P1;SDS_P2;PMS_P1;PMS_P2;Temp;Humidity;BMP_temperature;BMP_pressure;BME280_temperature;BME280_humidity;BME280_pressure;Samples;Min_cycle;Max_cycle;Signal;HPM_P1;HPM_P2
2022/01/03 00:00:14;;;;;;;;;;;;;;;;;;1036207;28;4547;-79
2022/01/03 00:01:04;;;;;;;;;;;;;;;;;;1033036;28;4033;-80
2022/01/03 00:01:36;;;;;;;;;;;;;;;;;;1035304;28;2847;-79
2022/01/03 00:02:06;;;;;;;;;;;;;;;;;;1037791;28;3774;-79
2022/01/03 00:02:37;;;;;;;;;;;;;;;;;;1043290;28;2063;-79
2022/01/03 00:03:09;;;;;;;;;;;;;;;;;;1040681;28;4070;-80
2022/01/03 00:03:39;;;;;;;;;;;;;;;;;;1040066;28;2380;-79
2022/01/03 00:04:10;;;;;;;;;;;;;;;;;;1038742;28;3808;-79
2022/01/03 00:04:41;;;;;;;;;;;;;;;;;;1038159;28;3229;-79
2022/01/03 00:05:12;;;;;;;;;;;;;;;;;;1034560;28;3779;-78
2022/01/03 00:05:42;;;;;;;;;;;;;;;;;;1035791;28;3649;-79
2022/01/03 00:06:14;;;;;;;;;;;;;;;;;;1034114;28;3816;-80
2022/01/03 00:06:44;;;;;;;;;;;;;;;;;;1040018;28;1699;-80
2022/01/03 00:07:15;;;;;;;;;;;;;;;;;;1037551;28;3773;-79
2022/01/03 00:07:46;;;;;;;;;;;;;;;;;;1038592;28;3679;-78
2022/01/03 00:08:18;;;;;;;;;;;;;;;;;;1038957;28;3717;-79
2022/01/03 00:08:48;;;;;;;;;;;;;;;;;;1039434;28;3842;-78
2022/01/03 00:09:19;;;;;;;;;;;;;;;;;;1038593;28;3644;-79
2022/01/03 00:09:50;;;;;;;;;;;;;;;;;;1040040;28;3883;-78
2022/01/03 00:10:20;;;;;;;;;;;;;;;;;;1039033;28;1829;-79
2022/01/03 00:10:51;;;;;;;;;;;;;;;;;;1038612;28;3814;-78
2022/01/03 00:11:21;;;;;;;;;;;;;;;;;;1038548;28;3876;-79
2022/01/03 00:11:52;;;;;;;;;;;;;;;;;;1038616;28;3805;-79
2022/01/03 00:12:22;;;;;;;;;;;;;;;;;;1039685;28;1732;-79
2022/01/03 00:12:52;;;;;;;;;;;;;;;;;;1038533;28;3798;-79
2022/01/03 00:13:23;;;;;;;;;;;;;;;;;;1043122;28;3580;-79
2022/01/03 00:13:53;;;;;;;;;;;;;;;;;;1043482;28;3816;-80
2022/01/03 00:14:26;;;;;;;;;;;;;;;;;;1044258;28;2151;-79
2022/01/03 00:14:56;;;;;;;;;;;;;;;;;;1044017;28;3836;-79
2022/01/03 00:15:27;;;;;;;;;;;;;;;;;;1042431;28;2934;-78
2022/01/03 00:15:57;;;;;;;;;;;;;;;;;;1042375;28;3967;-79
2022/01/03 00:16:29;;;;;;;;;;;;;;;;;;1037072;28;3376;-78
2022/01/03 00:16:59;;;;;;;;;;;;;;;;;;1037155;28;3803;-79
2022/01/03 00:17:30;;;;;;;;;;;;;;;;;;1040692;28;3295;-80
2022/01/03 00:18:00;;;;;;;;;;;;;;;;;;1040547;28;3813;-78
2022/01/03 00:18:30;;;;;;;;;;;;;;;;;;1040572;28;3308;-80
2022/01/03 00:19:00;;;;;;;;;;;;;;;;;;1038679;28;3987;-80
2022/01/03 00:19:31;;;;;;;;;;;;;;;;;;1038681;28;3111;-79
2022/01/03 00:20:01;;;;;;;;;;;;;;;;;;1040903;28;3929;-78
2022/01/03 00:20:31;;;;;;;;;;;;;;;;;;1044604;28;3157;-79
2022/01/03 00:21:02;;;;;;;;;;;;;;;;;;1042664;28;3864;-78
2022/01/03 00:21:39;;;;;;;;;;;;;;;;;;1043077;28;2944;-78
2022/01/03 00:22:11;;;;;;;;;;;;;;;;;;1039312;28;3844;-79
2022/01/03 00:22:52;;;;;;;;;;;;;;;;;;1038627;28;2680;-80
2022/01/03 00:23:25;;;;;;;;;;;;;;;;;;1038439;28;3856;-80
2022/01/03 00:24:01;;;;;;;;;;;;;;;;;;1040808;28;3789;-80
2022/01/03 00:24:32;;;;;;;;;;;;;;;;;;1044744;28;1709;-79
2022/01/03 00:25:04;;;;;;;;;;;;;;;;;;1042703;28;3963;-79
2022/01/03 00:25:35;;;;;;;;;;;;;;;;;;1043761;28;3491;-79
2022/01/03 00:26:07;;;;;;;;;;;;;;;;;;1043618;28;3961;-79
2022/01/03 00:26:38;;;;;;;;;;;;;;;;;;1043617;28;3417;-79
2022/01/03 00:27:13;;;;;;;;;;;;;;;;;;1043213;28;3873;-79
2022/01/03 00:27:43;;;;;;;;;;;;;;;;;;1043999;28;3428;-79
2022/01/03 00:28:15;;;;;;;;;;;;;;;;;;1044033;28;3875;-79
2022/01/03 00:28:49;;;;;;;;;;;;;;;;;;1041382;28;3301;-78
2022/01/03 00:29:22;;;;;;;;;;;;;;;;;;1036021;28;5296;-79
2022/01/03 00:29:52;;;;;;;;;;;;;;;;;;1034534;28;4188;-79
2022/01/03 00:30:23;;;;;;;;;;;;;;;;;;1036096;28;6137;-79
2022/01/03 00:30:54;;;;;;;;;;;;;;;;;;1038523;28;4039;-79
2022/01/03 00:31:40;;;;;;;;;;;;;;;;;;1042420;28;3020;-79
2022/01/03 00:32:11;;;;;;;;;;;;;;;;;;1042946;28;3836;-78
2022/01/03 00:32:42;;;;;;;;;;;;;;;;;;1043418;28;1622;-78
2022/01/03 00:33:14;;;;;;;;;;;;;;;;;;1042077;28;3839;-79
2022/01/03 00:33:49;;;;;;;;;;;;;;;;;;1044397;28;3506;-79
2022/01/03 00:34:20;;;;;;;;;;;;;;;;;;1044107;28;3896;-79
2022/01/03 00:34:51;;;;;;;;;;;;;;;;;;1044019;28;3799;-79
2022/01/03 00:35:21;;;;;;;;;;;;;;;;;;1042893;28;3339;-78
2022/01/03 00:35:58;;;;;;;;;;;;;;;;;;1042593;28;3854;-78
2022/01/03 00:36:30;;;;;;;;;;;;;;;;;;1044151;28;2932;-79
2022/01/03 00:37:00;;;;;;;;;;;;;;;;;;1042415;28;4048;-80
2022/01/03 00:37:34;;;;;;;;;;;;;;;;;;1044011;28;3639;-78
2022/01/03 00:38:06;;;;;;;;;;;;;;;;;;1042887;28;3843;-78
2022/01/03 00:38:37;;;;;;;;;;;;;;;;;;1043598;28;2013;-78
2022/01/03 00:39:08;;;;;;;;;;;;;;;;;;1042733;28;3819;-78
2022/01/03 00:39:38;;;;;;;;;;;;;;;;;;1042219;28;3364;-78
2022/01/03 00:40:09;;;;;;;;;;;;;;;;;;1041980;28;4006;-79
2022/01/03 00:40:40;;;;;;;;;;;;;;;;;;1044598;28;2260;-78
2022/01/03 00:41:10;;;;;;;;;;;;;;;;;;1039889;28;3783;-79
2022/01/03 00:41:42;;;;;;;;;;;;;;;;;;1040476;28;3329;-78
2022/01/03 00:42:15;;;;;;;;;;;;;;;;;;1040442;28;3813;-78
2022/01/03 00:42:46;;;;;;;;;;;;;;;;;;1041571;28;1914;-78
2022/01/03 00:43:16;;;;;;;;;;;;;;;;;;1043665;28;3809;-78
2022/01/03 00:43:47;;;;;;;;;;;;;;;;;;1044116;28;1696;-78
2022/01/03 00:44:18;;;;;;;;;;;;;;;;;;1043326;28;3732;-79
2022/01/03 00:44:48;;;;;;;;;;;;;;;;;;1043898;28;3779;-78
2022/01/03 00:45:18;;;;;;;;;;;;;;;;;;1042808;28;3468;-78
2022/01/03 00:45:52;;;;;;;;;;;;;;;;;;1043274;28;3925;-80
2022/01/03 00:46:22;;;;;;;;;;;;;;;;;;1042941;28;1827;-78
2022/01/03 00:46:53;;;;;;;;;;;;;;;;;;1043700;28;3879;-77
2022/01/03 00:47:23;;;;;;;;;;;;;;;;;;1043160;28;2877;-77
2022/01/03 00:47:54;;;;;;;;;;;;;;;;;;1043055;28;3842;-78
2022/01/03 00:48:25;;;;;;;;;;;;;;;;;;1043275;28;2091;-78
2022/01/03 00:48:55;;;;;;;;;;;;;;;;;;1042969;28;3810;-79
2022/01/03 00:49:26;;;;;;;;;;;;;;;;;;1042414;28;3416;-78
2022/01/03 00:49:56;;;;;;;;;;;;;;;;;;1042725;28;4000;-78
2022/01/03 00:50:27;;;;;;;;;;;;;;;;;;1042597;28;1691;-77
2022/01/03 00:51:00;;;;;;;;;;;;;;;;;;1043262;28;3835;-78
2022/01/03 00:51:31;;;;;;;;;;;;;;;;;;1042988;28;2714;-79
2022/01/03 00:52:01;;;;;;;;;;;;;;;;;;1042346;28;3936;-79
2022/01/03 00:52:31;;;;;;;;;;;;;;;;;;1044097;28;1819;-78
2022/01/03 00:53:02;;;;;;;;;;;;;;;;;;1042043;28;3874;-77
2022/01/03 00:53:32;;;;;;;;;;;;;;;;;;1039344;28;3097;-79
2022/01/03 00:54:03;;;;;;;;;;;;;;;;;;1038493;28;3811;-79
2022/01/03 00:54:33;;;;;;;;;;;;;;;;;;1038092;28;3476;-78
2022/01/03 00:55:04;;;;;;;;;;;;;;;;;;1037634;28;3834;-79
2022/01/03 00:55:34;;;;;;;;;;;;;;;;;;1039328;28;2746;-78
2022/01/03 00:56:08;;;;;;;;;;;;;;;;;;1037804;28;3788;-79
2022/01/03 00:56:43;;;;;;;;;;;;;;;;;;1039038;28;3248;-79
2022/01/03 00:57:21;;;;;;;;;;;;;;;;;;1042028;28;3928;-79
2022/01/03 00:58:00;;;;;;;;;;;;;;;;;;1044982;28;4029;-78
2022/01/03 00:58:45;;;;;;;;;;;;;;;;;;1044174;28;1708;-78
2022/01/03 00:59:21;;;;;;;;;;;;;;;;;;1041814;28;3786;-79
2022/01/03 00:59:58;;;;;;;;;;;;;;;;;;1042541;28;3819;-78
2022/01/03 01:00:32;;;;;;;;;;;;;;;;;;1039009;28;3484;-79
2022/01/03 01:01:04;;;;;;;;;;;;;;;;;;1040755;28;3809;-78
2022/01/03 01:01:35;;;;;;;;;;;;;;;;;;1041532;28;2449;-78
2022/01/03 01:02:07;;;;;;;;;;;;;;;;;;1042547;28;3821;-78
2022/01/03 01:02:40;;;;;;;;;;;;;;;;;;1044597;28;1564;-78
2022/01/03 01:03:15;;;;;;;;;;;;;;;;;;1043067;28;3854;-79
2022/01/03 01:03:47;;;;;;;;;;;;;;;;;;1043258;28;1937;-78
2022/01/03 01:04:18;;;;;;;;;;;;;;;;;;1043323;28;4580;-75
2022/01/03 01:04:49;;;;;;;;;;;;;;;;;;1043378;28;3819;-76
2022/01/03 01:05:21;;;;;;;;;;;;;;;;;;1043000;28;3214;-76
2022/01/03 01:05:53;;;;;;;;;;;;;;;;;;1043338;28;3839;-77
2022/01/03 01:06:24;;;;;;;;;;;;;;;;;;1042363;28;1909;-76
2022/01/03 01:06:55;;;;;;;;;;;;;;;;;;1044007;28;3822;-76
2022/01/03 01:07:27;;;;;;;;;;;;;;;;;;1042453;28;3303;-75
2022/01/03 01:07:57;;;;;;;;;;;;;;;;;;1043005;28;4104;-75
2022/01/03 01:08:28;;;;;;;;;;;;;;;;;;1043057;28;2752;-76
2022/01/03 01:09:00;;;;;;;;;;;;;;;;;;1042810;28;3851;-75
2022/01/03 01:09:30;;;;;;;;;;;;;;;;;;1042579;28;2991;-76
2022/01/03 01:10:02;;;;;;;;;;;;;;;;;;1038059;28;3838;-75
2022/01/03 01:10:33;;;;;;;;;;;;;;;;;;1038611;28;1861;-76
2022/01/03 01:11:05;;;;;;;;;;;;;;;;;;1037548;28;3853;-75
2022/01/03 01:11:39;;;;;;;;;;;;;;;;;;1038432;28;2097;-74
2022/01/03 01:12:12;;;;;;;;;;;;;;;;;;1036965;28;4027;-75
2022/01/03 01:12:43;;;;;;;;;;;;;;;;;;1038506;28;2413;-77
2022/01/03 01:13:14;;;;;;;;;;;;;;;;;;1034798;28;3822;-76
2022/01/03 01:13:45;;;;;;;;;;;;;;;;;;1035914;28;3409;-76
2022/01/03 01:14:15;;;;;;;;;;;;;;;;;;1041747;28;3967;-76
2022/01/03 01:14:48;;;;;;;;;;;;;;;;;;1043297;28;1763;-76
2022/01/03 01:15:19;;;;;;;;;;;;;;;;;;1041620;28;3867;-75
2022/01/03 01:15:49;;;;;;;;;;;;;;;;;;1044748;28;3966;-76
2022/01/03 01:16:19;;;;;;;;;;;;;;;;;;1044340;28;3209;-76
2022/01/03 01:16:50;;;;;;;;;;;;;;;;;;1043083;28;3794;-75
2022/01/03 01:17:21;;;;;;;;;;;;;;;;;;1042255;28;3343;-75
2022/01/03 01:17:53;;;;;;;;;;;;;;;;;;1042760;28;3839;-75
2022/01/03 01:18:24;;;;;;;;;;;;;;;;;;1041017;28;1785;-75
2022/01/03 01:18:54;;;;;;;;;;;;;;;;;;1041017;28;4286;-76
2022/01/03 01:19:26;;;;;;;;;;;;;;;;;;1036110;28;3291;-76
2022/01/03 01:19:58;;;;;;;;;;;;;;;;;;1036682;28;3836;-74
2022/01/03 01:20:29;;;;;;;;;;;;;;;;;;1038094;28;1844;-76
2022/01/03 01:20:59;;;;;;;;;;;;;;;;;;1038839;28;3842;-76
2022/01/03 01:21:30;;;;;;;;;;;;;;;;;;1043125;28;3243;-76
2022/01/03 01:22:00;;;;;;;;;;;;;;;;;;1043866;28;3791;-77
2022/01/03 01:22:31;;;;;;;;;;;;;;;;;;1043799;28;1724;-76
2022/01/03 01:23:02;;;;;;;;;;;;;;;;;;1042800;28;3930;-76
2022/01/03 01:23:32;;;;;;;;;;;;;;;;;;1038979;28;3475;-75
2022/01/03 01:24:03;;;;;;;;;;;;;;;;;;1036634;28;3954;-75
2022/01/03 01:24:45;;;;;;;;;;;;;;;;;;1036659;28;1637;-76
2022/01/03 01:27:59;;;;;;;;;;;;;;;;;;1036836;28;3871;-77
2022/01/03 01:28:29;;;;;;;;;;;;;;;;;;1038520;28;2346;-75
2022/01/03 01:28:59;;;;;;;;;;;;;;;;;;1037998;28;3804;-75
2022/01/03 01:29:29;;;;;;;;;;;;;;;;;;1038074;28;3309;-76
2022/01/03 01:30:00;;;;;;;;;;;;;;;;;;1039149;28;3960;-74
2022/01/03 01:30:30;;;;;;;;;;;;;;;;;;1037852;28;4220;-76
2022/01/03 01:31:02;;;;;;;;;;;;;;;;;;1038136;28;3951;-75
2022/01/03 01:31:36;;;;;;;;;;;;;;;;;;1038318;28;3197;-74
2022/01/03 01:32:08;;;;;;;;;;;;;;;;;;1037770;28;3872;-76
2022/01/03 01:32:40;;;;;;;;;;;;;;;;;;1039233;28;1602;-76
2022/01/03 01:33:12;;;;;;;;;;;;;;;;;;1039018;28;4005;-75
2022/01/03 01:33:43;;;;;;;;;;;;;;;;;;1039578;28;3161;-76
2022/01/03 01:34:14;;;;;;;;;;;;;;;;;;1039098;28;3860;-75
2022/01/03 01:34:46;;;;;;;;;;;;;;;;;;1039255;28;2054;-74
2022/01/03 01:35:18;;;;;;;;;;;;;;;;;;1037698;28;3955;-75
2022/01/03 01:35:53;;;;;;;;;;;;;;;;;;1039197;28;3825;-74
2022/01/03 01:36:26;;;;;;;;;;;;;;;;;;1041348;28;1679;-77
2022/01/03 01:36:58;;;;;;;;;;;;;;;;;;1040212;28;4016;-76
2022/01/03 01:37:28;;;;;;;;;;;;;;;;;;1035940;28;3144;-75
2022/01/03 01:38:00;;;;;;;;;;;;;;;;;;1037229;28;3860;-76
2022/01/03 01:38:31;;;;;;;;;;;;;;;;;;1041333;28;1651;-77
2022/01/03 01:39:06;;;;;;;;;;;;;;;;;;1040339;28;3835;-74
2022/01/03 01:39:37;;;;;;;;;;;;;;;;;;1039534;28;2625;-75
2022/01/03 01:40:07;;;;;;;;;;;;;;;;;;1037741;28;4011;-76
2022/01/03 01:40:42;;;;;;;;;;;;;;;;;;1039513;28;3649;-77
2022/01/03 01:41:13;;;;;;;;;;;;;;;;;;1038829;28;3848;-77
2022/01/03 01:41:44;;;;;;;;;;;;;;;;;;1040288;28;2601;-75
2022/01/03 01:42:18;;;;;;;;;;;;;;;;;;1038936;28;3915;-76
2022/01/03 01:42:48;;;;;;;;;;;;;;;;;;1038774;28;4007;-75
2022/01/03 01:43:25;;;;;;;;;;;;;;;;;;1037999;28;3178;-76
2022/01/03 01:43:59;;;;;;;;;;;;;;;;;;1039041;28;4920;-76
2022/01/03 01:44:31;;;;;;;;;;;;;;;;;;1038733;28;2694;-75
2022/01/03 01:45:07;;;;;;;;;;;;;;;;;;1039630;28;3816;-75
2022/01/03 01:45:40;;;;;;;;;;;;;;;;;;1038645;28;2915;-75
2022/01/03 01:46:12;;;;;;;;;;;;;;;;;;1039313;28;3788;-74
2022/01/03 01:46:46;;;;;;;;;;;;;;;;;;1040044;28;1821;-74
2022/01/03 01:47:17;;;;;;;;;;;;;;;;;;1037850;28;3979;-75
2022/01/03 01:47:48;;;;;;;;;;;;;;;;;;1040222;28;3301;-77
2022/01/03 01:48:21;;;;;;;;;;;;;;;;;;1042010;28;3687;-75
2022/01/03 01:48:52;;;;;;;;;;;;;;;;;;1043104;28;4004;-75
2022/01/03 01:49:24;;;;;;;;;;;;;;;;;;1043917;28;3206;-76
2022/01/03 01:49:55;;;;;;;;;;;;;;;;;;1044739;28;3940;-76
2022/01/03 01:50:27;;;;;;;;;;;;;;;;;;1044630;28;3270;-75
2022/01/03 01:50:59;;;;;;;;;;;;;;;;;;1043286;28;3809;-76
2022/01/03 01:51:34;;;;;;;;;;;;;;;;;;1043090;28;2350;-76
2022/01/03 01:52:07;;;;;;;;;;;;;;;;;;1041480;28;3843;-75
2022/01/03 01:52:38;;;;;;;;;;;;;;;;;;1042461;28;1827;-76
2022/01/03 01:53:09;;;;;;;;;;;;;;;;;;1041097;28;3834;-76
2022/01/03 01:53:41;;;;;;;;;;;;;;;;;;1041171;28;3268;-76
2022/01/03 01:54:13;;;;;;;;;;;;;;;;;;1044259;28;3921;-76
2022/01/03 01:54:49;;;;;;;;;;;;;;;;;;1044874;28;1787;-76
2022/01/03 01:55:20;;;;;;;;;;;;;;;;;;1044297;28;4292;-75
2022/01/03 01:55:51;;;;;;;;;;;;;;;;;;1045582;28;3954;-75
2022/01/03 01:56:25;;;;;;;;;;;;;;;;;;1044389;28;3441;-77
2022/01/03 01:57:02;;;;;;;;;;;;;;;;;;1044546;28;3823;-76
2022/01/03 01:57:39;;;;;;;;;;;;;;;;;;1043946;28;3264;-76
2022/01/03 01:58:15;;;;;;;;;;;;;;;;;;1043082;28;3824;-76
2022/01/03 01:59:01;;;;;;;;;;;;;;;;;;1044446;28;1935;-75
2022/01/03 01:59:44;;;;;;;;;;;;;;;;;;1043614;28;3832;-76
2022/01/03 02:00:15;;;;;;;;;;;;;;;;;;1040708;28;3798;-76
2022/01/03 02:00:55;;;;;;;;;;;;;;;;;;1044590;28;1873;-76
2022/01/03 02:01:40;;;;;;;;;;;;;;;;;;1042917;28;3713;-75
2022/01/03 02:02:11;;;;;;;;;;;;;;;;;;1040794;28;3835;-76
2022/01/03 02:02:44;;;;;;;;;;;;;;;;;;1041843;28;1608;-75
2022/01/03 02:03:15;;;;;;;;;;;;;;;;;;1034308;28;3907;-76
2022/01/03 02:03:47;;;;;;;;;;;;;;;;;;1038469;28;3359;-76
2022/01/03 02:04:31;;;;;;;;;;;;;;;;;;1040675;28;3658;-76
2022/01/03 02:05:21;;;;;;;;;;;;;;;;;;1042609;28;3828;-76
2022/01/03 02:06:30;;;;;;;;;;;;;;;;;;1043974;28;3932;-77
2022/01/03 02:07:24;;;;;;;;;;;;;;;;;;1028550;28;3972;-75
2022/01/03 02:07:54;;;;;;;;;;;;;;;;;;1025029;28;3845;-76
2022/01/03 02:08:29;;;;;;;;;;;;;;;;;;1021355;28;1542;-76
2022/01/03 02:09:05;;;;;;;;;;;;;;;;;;1021372;28;4075;-76
2022/01/03 02:09:42;;;;;;;;;;;;;;;;;;1018213;29;3258;-76
2022/01/03 02:10:14;;;;;;;;;;;;;;;;;;1021599;28;3800;-76
2022/01/03 02:10:44;;;;;;;;;;;;;;;;;;1024849;28;1704;-76
2022/01/03 02:11:20;;;;;;;;;;;;;;;;;;1024779;28;3938;-75
2022/01/03 02:11:55;;;;;;;;;;;;;;;;;;1028682;28;4055;-75
2022/01/03 02:12:26;;;;;;;;;;;;;;;;;;1028653;28;1553;-76
2022/01/03 02:12:57;;;;;;;;;;;;;;;;;;1036434;28;3992;-75
2022/01/03 02:13:27;;;;;;;;;;;;;;;;;;1043388;28;2406;-76
2022/01/03 02:13:59;;;;;;;;;;;;;;;;;;1043764;28;3812;-76
2022/01/03 02:14:36;;;;;;;;;;;;;;;;;;1041697;28;1713;-75
2022/01/03 02:15:10;;;;;;;;;;;;;;;;;;1036654;28;3959;-76
2022/01/03 02:15:45;;;;;;;;;;;;;;;;;;1037377;28;3429;-76
2022/01/03 02:16:15;;;;;;;;;;;;;;;;;;1038199;28;3782;-75
2022/01/03 02:16:46;;;;;;;;;;;;;;;;;;1041697;28;3198;-76
2022/01/03 02:17:16;;;;;;;;;;;;;;;;;;1042345;28;3828;-76
2022/01/03 02:17:47;;;;;;;;;;;;;;;;;;1043366;28;3182;-75
2022/01/03 02:18:18;;;;;;;;;;;;;;;;;;1043830;28;3840;-76
2022/01/03 02:18:48;;;;;;;;;;;;;;;;;;1041152;28;4030;-75
2022/01/03 02:19:21;;;;;;;;;;;;;;;;;;1039686;28;3237;-76
2022/01/03 02:20:05;;;;;;;;;;;;;;;;;;1040179;28;3948;-76
2022/01/03 02:20:36;;;;;;;;;;;;;;;;;;1040325;28;2082;-75
2022/01/03 02:21:06;;;;;;;;;;;;;;;;;;1040931;28;3799;-76
2022/01/03 02:21:36;;;;;;;;;;;;;;;;;;1041061;28;2323;-76
2022/01/03 02:22:10;;;;;;;;;;;;;;;;;;1041164;28;3846;-75
2022/01/03 02:22:41;;;;;;;;;;;;;;;;;;1041736;28;1804;-75
2022/01/03 02:23:11;;;;;;;;;;;;;;;;;;1041470;28;3784;-76
2022/01/03 02:23:42;;;;;;;;;;;;;;;;;;1040221;28;3376;-75
2022/01/03 02:24:12;;;;;;;;;;;;;;;;;;1037173;28;3972;-75
2022/01/03 02:24:42;;;;;;;;;;;;;;;;;;1039680;28;1976;-76
2022/01/03 02:25:14;;;;;;;;;;;;;;;;;;1037847;28;3788;-74
2022/01/03 02:25:44;;;;;;;;;;;;;;;;;;1039095;28;2198;-76
2022/01/03 02:26:15;;;;;;;;;;;;;;;;;;1043092;28;4210;-75
2022/01/03 02:26:45;;;;;;;;;;;;;;;;;;1044954;28;3701;-75
2022/01/03 02:27:15;;;;;;;;;;;;;;;;;;1037879;28;3916;-76
2022/01/03 02:27:47;;;;;;;;;;;;;;;;;;1039734;28;3263;-74
2022/01/03 02:28:20;;;;;;;;;;;;;;;;;;1037126;28;3750;-77
2022/01/03 02:28:50;;;;;;;;;;;;;;;;;;1037914;28;3891;-76
2022/01/03 02:29:21;;;;;;;;;;;;;;;;;;1040148;28;3252;-75
2022/01/03 02:29:51;;;;;;;;;;;;;;;;;;1040297;28;3948;-76
2022/01/03 02:30:24;;;;;;;;;;;;;;;;;;1042361;28;3519;-76
2022/01/03 02:30:54;;;;;;;;;;;;;;;;;;1042684;28;3875;-76
2022/01/03 02:31:25;;;;;;;;;;;;;;;;;;1043050;28;3205;-76
2022/01/03 02:31:55;;;;;;;;;;;;;;;;;;1043492;28;3796;-77
2022/01/03 02:32:26;;;;;;;;;;;;;;;;;;1044650;28;1923;-75
2022/01/03 02:32:56;;;;;;;;;;;;;;;;;;1042543;28;3815;-76
2022/01/03 02:33:26;;;;;;;;;;;;;;;;;;1042025;28;3351;-76
2022/01/03 02:33:57;;;;;;;;;;;;;;;;;;1043687;28;3807;-75
2022/01/03 02:34:29;;;;;;;;;;;;;;;;;;1043911;28;1799;-76
2022/01/03 02:34:59;;;;;;;;;;;;;;;;;;1043860;28;4043;-76
2022/01/03 02:35:30;;;;;;;;;;;;;;;;;;1043858;28;3287;-76
2022/01/03 02:36:01;;;;;;;;;;;;;;;;;;1042438;28;3819;-76
2022/01/03 02:36:32;;;;;;;;;;;;;;;;;;1043958;28;3339;-76
2022/01/03 02:37:03;;;;;;;;;;;;;;;;;;1044778;28;3808;-75
2022/01/03 02:37:33;;;;;;;;;;;;;;;;;;1044674;28;2854;-75
2022/01/03 02:38:03;;;;;;;;;;;;;;;;;;1039397;28;3852;-74
2022/01/03 02:38:33;;;;;;;;;;;;;;;;;;1039300;28;1669;-77
2022/01/03 02:39:04;;;;;;;;;;;;;;;;;;1039280;28;3975;-75
2022/01/03 02:39:34;;;;;;;;;;;;;;;;;;1040295;28;3230;-76
2022/01/03 02:40:05;;;;;;;;;;;;;;;;;;1045133;28;4232;-76
2022/01/03 02:40:35;;;;;;;;;;;;;;;;;;1044098;28;3537;-76
2022/01/03 02:41:06;;;;;;;;;;;;;;;;;;1042886;28;3834;-76
2022/01/03 02:41:36;;;;;;;;;;;;;;;;;;1042610;28;3347;-75
2022/01/03 02:42:06;;;;;;;;;;;;;;;;;;1042141;28;3965;-76
2022/01/03 02:42:37;;;;;;;;;;;;;;;;;;1039658;28;1904;-75
2022/01/03 02:43:08;;;;;;;;;;;;;;;;;;1039708;28;3831;-75
2022/01/03 02:43:38;;;;;;;;;;;;;;;;;;1039062;28;2647;-76
2022/01/03 02:44:08;;;;;;;;;;;;;;;;;;1039784;28;3718;-75
2022/01/03 02:44:42;;;;;;;;;;;;;;;;;;1044139;28;2687;-76
2022/01/03 02:45:14;;;;;;;;;;;;;;;;;;1044336;28;3862;-76
2022/01/03 02:45:44;;;;;;;;;;;;;;;;;;1041342;28;4073;-77
2022/01/03 02:46:15;;;;;;;;;;;;;;;;;;1040256;28;3774;-75
2022/01/03 02:46:45;;;;;;;;;;;;;;;;;;1041822;28;1706;-76
2022/01/03 02:47:20;;;;;;;;;;;;;;;;;;1038723;28;3797;-74
2022/01/03 02:47:53;;;;;;;;;;;;;;;;;;1043655;28;3810;-76
2022/01/03 02:48:23;;;;;;;;;;;;;;;;;;1044184;28;1675;-76
2022/01/03 02:48:54;;;;;;;;;;;;;;;;;;1044925;28;3977;-76
2022/01/03 02:49:24;;;;;;;;;;;;;;;;;;1043567;28;3168;-75
2022/01/03 02:49:54;;;;;;;;;;;;;;;;;;1043668;28;4124;-75
2022/01/03 02:50:26;;;;;;;;;;;;;;;;;;1043305;28;3422;-75
2022/01/03 02:50:56;;;;;;;;;;;;;;;;;;1042715;28;3776;-76
2022/01/03 02:51:26;;;;;;;;;;;;;;;;;;1042359;28;3305;-76
2022/01/03 02:51:57;;;;;;;;;;;;;;;;;;1042813;28;4019;-76
2022/01/03 02:52:27;;;;;;;;;;;;;;;;;;1044179;28;1593;-76
2022/01/03 02:52:57;;;;;;;;;;;;;;;;;;1044308;28;3842;-76
2022/01/03 02:53:28;;;;;;;;;;;;;;;;;;1043341;28;3536;-76
2022/01/03 02:53:58;;;;;;;;;;;;;;;;;;1044903;28;3944;-75
2022/01/03 02:54:28;;;;;;;;;;;;;;;;;;1044294;28;1867;-76
2022/01/03 02:54:59;;;;;;;;;;;;;;;;;;1040166;28;5377;-75
2022/01/03 02:55:29;;;;;;;;;;;;;;;;;;1037264;28;3100;-75
2022/01/03 02:56:00;;;;;;;;;;;;;;;;;;1038716;28;4060;-75
2022/01/03 02:56:32;;;;;;;;;;;;;;;;;;1038165;28;3528;-76
2022/01/03 02:57:02;;;;;;;;;;;;;;;;;;1042465;28;3780;-75
2022/01/03 02:57:33;;;;;;;;;;;;;;;;;;1044269;28;3074;-76
2022/01/03 02:58:07;;;;;;;;;;;;;;;;;;1043304;28;4701;-75
2022/01/03 02:58:37;;;;;;;;;;;;;;;;;;1044335;28;2219;-75
2022/01/03 02:59:19;;;;;;;;;;;;;;;;;;1043364;28;3808;-76
2022/01/03 02:59:53;;;;;;;;;;;;;;;;;;1043217;28;3950;-75
2022/01/03 03:00:26;;;;;;;;;;;;;;;;;;1041013;28;3686;-76
2022/01/03 03:00:56;;;;;;;;;;;;;;;;;;1042643;28;3870;-76
2022/01/03 03:01:26;;;;;;;;;;;;;;;;;;1043272;28;3326;-75
2022/01/03 03:01:57;;;;;;;;;;;;;;;;;;1043736;28;3946;-76
2022/01/03 03:02:27;;;;;;;;;;;;;;;;;;1042679;28;3063;-76
2022/01/03 03:02:57;;;;;;;;;;;;;;;;;;1043018;28;3817;-76
2022/01/03 03:03:28;;;;;;;;;;;;;;;;;;1043274;28;3584;-76
2022/01/03 03:03:58;;;;;;;;;;;;;;;;;;1043142;28;3810;-76
2022/01/03 03:04:28;;;;;;;;;;;;;;;;;;1043006;28;1818;-76
2022/01/03 03:04:59;;;;;;;;;;;;;;;;;;1043267;28;3973;-75
2022/01/03 03:05:30;;;;;;;;;;;;;;;;;;1038946;28;3259;-76
2022/01/03 03:06:01;;;;;;;;;;;;;;;;;;1040640;28;3857;-75
2022/01/03 03:06:31;;;;;;;;;;;;;;;;;;1039440;28;2365;-76
2022/01/03 03:07:16;;;;;;;;;;;;;;;;;;1040945;28;3764;-75
2022/01/03 03:07:47;;;;;;;;;;;;;;;;;;1040508;28;1489;-75
2022/01/03 03:08:17;;;;;;;;;;;;;;;;;;1040264;28;3882;-77
2022/01/03 03:08:48;;;;;;;;;;;;;;;;;;1040886;28;3799;-75
2022/01/03 03:09:20;;;;;;;;;;;;;;;;;;1034852;28;3337;-76
2022/01/03 03:09:50;;;;;;;;;;;;;;;;;;1039324;28;3839;-76
2022/01/03 03:10:22;;;;;;;;;;;;;;;;;;1040497;28;2169;-76
2022/01/03 03:10:52;;;;;;;;;;;;;;;;;;1035292;28;4033;-75
2022/01/03 03:11:22;;;;;;;;;;;;;;;;;;1037105;28;2679;-76
2022/01/03 03:11:53;;;;;;;;;;;;;;;;;;1037189;28;3987;-75
2022/01/03 03:12:23;;;;;;;;;;;;;;;;;;1037494;28;3300;-76
2022/01/03 03:12:54;;;;;;;;;;;;;;;;;;1036860;28;3842;-76
2022/01/03 03:13:24;;;;;;;;;;;;;;;;;;1038790;28;1850;-76
2022/01/03 03:13:54;;;;;;;;;;;;;;;;;;1038925;28;4302;-75
2022/01/03 03:14:25;;;;;;;;;;;;;;;;;;1039776;28;1944;-76
2022/01/03 03:14:55;;;;;;;;;;;;;;;;;;1040937;28;4073;-76
2022/01/03 03:15:25;;;;;;;;;;;;;;;;;;1038744;28;3074;-76
2022/01/03 03:15:55;;;;;;;;;;;;;;;;;;1040860;28;3808;-76
2022/01/03 03:16:26;;;;;;;;;;;;;;;;;;1041940;28;2182;-75
2022/01/03 03:16:56;;;;;;;;;;;;;;;;;;1044044;28;3787;-75
2022/01/03 03:17:26;;;;;;;;;;;;;;;;;;1044326;28;2923;-75
2022/01/03 03:17:57;;;;;;;;;;;;;;;;;;1043053;28;3798;-77
2022/01/03 03:18:27;;;;;;;;;;;;;;;;;;1043634;28;1489;-76
2022/01/03 03:18:57;;;;;;;;;;;;;;;;;;1045275;28;4043;-75
2022/01/03 03:19:28;;;;;;;;;;;;;;;;;;1042335;28;2114;-76
2022/01/03 03:20:03;;;;;;;;;;;;;;;;;;1043358;28;3826;-76
2022/01/03 03:20:34;;;;;;;;;;;;;;;;;;1043736;28;2982;-76
2022/01/03 03:21:04;;;;;;;;;;;;;;;;;;1041407;28;3819;-76
2022/01/03 03:21:34;;;;;;;;;;;;;;;;;;1042746;28;2168;-74
2022/01/03 03:22:05;;;;;;;;;;;;;;;;;;1041607;28;3807;-74
2022/01/03 03:22:35;;;;;;;;;;;;;;;;;;1042751;28;1622;-75
2022/01/03 03:23:06;;;;;;;;;;;;;;;;;;1041903;28;3817;-76
2022/01/03 03:23:36;;;;;;;;;;;;;;;;;;1043658;28;2000;-76
2022/01/03 03:24:06;;;;;;;;;;;;;;;;;;1042305;28;3843;-75
2022/01/03 03:24:36;;;;;;;;;;;;;;;;;;1039222;28;1827;-76
2022/01/03 03:25:08;;;;;;;;;;;;;;;;;;1040303;28;4293;-76
2022/01/03 03:25:39;;;;;;;;;;;;;;;;;;1038361;28;2207;-76
2022/01/03 03:26:10;;;;;;;;;;;;;;;;;;1038064;28;4018;-77
2022/01/03 03:26:40;;;;;;;;;;;;;;;;;;1045016;28;2128;-75
2022/01/03 03:27:11;;;;;;;;;;;;;;;;;;1043725;28;3804;-75
2022/01/03 03:27:43;;;;;;;;;;;;;;;;;;1044105;28;3511;-76
2022/01/03 03:28:14;;;;;;;;;;;;;;;;;;1044957;28;3981;-76
2022/01/03 03:28:44;;;;;;;;;;;;;;;;;;1041886;28;1788;-75
2022/01/03 03:29:15;;;;;;;;;;;;;;;;;;1040149;28;3906;-76
2022/01/03 03:29:46;;;;;;;;;;;;;;;;;;1041489;28;3579;-76
2022/01/03 03:30:19;;;;;;;;;;;;;;;;;;1039718;28;3740;-75
2022/01/03 03:30:49;;;;;;;;;;;;;;;;;;1043485;28;3846;-75
2022/01/03 03:31:19;;;;;;;;;;;;;;;;;;1044104;28;3510;-76
2022/01/03 03:31:50;;;;;;;;;;;;;;;;;;1044231;28;3851;-75
2022/01/03 03:32:20;;;;;;;;;;;;;;;;;;1043456;28;3186;-76
2022/01/03 03:32:52;;;;;;;;;;;;;;;;;;1043809;28;3814;-76
2022/01/03 03:33:23;;;;;;;;;;;;;;;;;;1038127;28;2712;-76
2022/01/03 03:33:53;;;;;;;;;;;;;;;;;;1037640;28;3964;-74
2022/01/03 03:34:23;;;;;;;;;;;;;;;;;;1039140;28;1692;-74
2022/01/03 03:34:53;;;;;;;;;;;;;;;;;;1040454;28;3809;-76
2022/01/03 03:35:24;;;;;;;;;;;;;;;;;;1039418;28;2924;-76
2022/01/03 03:35:55;;;;;;;;;;;;;;;;;;1038363;28;4101;-75
2022/01/03 03:36:25;;;;;;;;;;;;;;;;;;1044359;28;1595;-75
2022/01/03 03:36:55;;;;;;;;;;;;;;;;;;1042884;28;4080;-77
2022/01/03 03:37:25;;;;;;;;;;;;;;;;;;1036771;28;3319;-77
2022/01/03 03:37:56;;;;;;;;;;;;;;;;;;1037082;28;3801;-75
2022/01/03 03:38:27;;;;;;;;;;;;;;;;;;1036989;28;1861;-76
2022/01/03 03:38:57;;;;;;;;;;;;;;;;;;1033006;28;3983;-75
2022/01/03 03:39:27;;;;;;;;;;;;;;;;;;1034846;28;3572;-75
2022/01/03 03:39:58;;;;;;;;;;;;;;;;;;1035244;28;3804;-75
2022/01/03 03:40:28;;;;;;;;;;;;;;;;;;1038134;28;2877;-75
2022/01/03 03:41:01;;;;;;;;;;;;;;;;;;1042402;28;3970;-75
2022/01/03 03:41:31;;;;;;;;;;;;;;;;;;1042168;28;2898;-75
2022/01/03 03:42:01;;;;;;;;;;;;;;;;;;1038405;28;3825;-76
2022/01/03 03:42:32;;;;;;;;;;;;;;;;;;1033779;28;2190;-77
2022/01/03 03:43:02;;;;;;;;;;;;;;;;;;1033250;28;3929;-76
2022/01/03 03:43:32;;;;;;;;;;;;;;;;;;1031509;28;3105;-77
2022/01/03 03:44:03;;;;;;;;;;;;;;;;;;1036063;28;3785;-75
2022/01/03 03:44:34;;;;;;;;;;;;;;;;;;1037767;28;3145;-75